Terminal Aerodrome Forecast
Issued by NWS

Home | Current Version | Previous Version | Text Only | Print | Product List | Glossary On
Versions: 1 2 3 4 5 6 7 8 9 10 11 12 13 14 15 16 17 18 19 20
000
FTUS44 KMAF 040102 AAA
TAFHOB
TAF AMD
KHOB 040102Z 0401/0424 11009KT P6SM BKN060 OVC200
     FM040600 13006KT P6SM SCT060 BKN150
     FM041500 14011KT P6SM SCT120 BKN200=

USA.gov is the U.S. government's official web portal to all federal, state and local government web resources and services.